Latest Weather Observations for Meekatharra

IDW60801

Issued at 11:33 pm WST Wednesday 28 June 2017 (issued every 30 minutes, with the page automatically refreshed every 10 minutes)

About weather observations | Map of weather stations | Latest weather observations for WA | Other Formats
Station Details ID: 007045 Name: MEEKATHARRA AIRPORT Lat: -26.61 Lon: 118.54 Height: 517.0 m
Data from the previous 72 hours. | See also: Recent months at Meekatharra
Date/Time
WST
Temp
°C
App
Temp
°C
Dew
Point
°C
Rel
Hum
%
Delta-T
°C
Wind Press
QNH
hPa
Press
MSL
hPa
Rain since
9am
mm
Dir  Spd
km/h
Gust
km/h
Spd
kts
Gust
kts
28/11:30pm 9.0 4.1 1.9 61 3.0 E 17 20 9 11 1028.9 1028.2 0.0
28/11:00pm 9.2 5.1 2.1 61 3.0 E 13 17 7 9 1029.0 1028.3 0.0
28/10:30pm 9.4 5.3 2.0 60 3.2 E 13 17 7 9 1029.0 1028.3 0.0
28/10:00pm 10.2 5.7 2.1 57 3.5 ESE 15 20 8 11 1028.9 1028.2 0.0
28/09:30pm 10.6 5.7 2.2 56 3.7 ESE 17 22 9 12 1029.0 1028.3 0.0
28/09:00pm 11.1 6.2 2.2 54 3.9 ESE 17 22 9 12 1029.0 1028.3 0.0
28/08:30pm 11.4 6.5 2.2 53 4.1 ESE 17 20 9 11 1028.9 1028.2 0.0
28/08:00pm 12.0 6.7 1.9 50 4.4 ESE 19 24 10 13 1028.7 1028.0 0.0
28/07:30pm 12.3 7.3 1.6 48 4.7 ESE 17 20 9 11 1028.7 1028.0 0.0
28/07:00pm 13.2 7.8 1.2 44 5.2 ESE 19 24 10 13 1028.5 1027.8 0.0
28/06:30pm 13.6 8.1 0.6 41 5.7 ESE 19 26 10 14 1028.4 1027.7 0.0
28/06:00pm 14.2 8.4 0.1 38 6.1 ESE 20 30 11 16 1028.3 1027.6 0.0
28/05:30pm 14.9 8.7 0.0 36 6.5 ESE 22 35 12 19 1028.1 1027.5 0.0
28/05:00pm 15.5 9.0 0.1 35 6.7 ESE 24 33 13 18 1028.0 1027.4 0.0
28/04:30pm 16.0 9.0 -0.2 33 7.1 ESE 26 35 14 19 1027.7 1027.1 0.0
28/04:00pm 16.4 9.0 -0.8 31 7.4 ESE 28 37 15 20 1027.5 1026.8 0.0
28/03:30pm 16.7 9.4 -0.1 32 7.4 ESE 28 37 15 20 1027.5 1026.8 0.0
28/03:00pm 16.5 9.2 -0.2 32 7.3 ESE 28 39 15 21 1027.4 1026.7 0.0
28/02:30pm 16.4 9.1 -0.3 32 7.3 E 28 41 15 22 1027.2 1026.5 0.0
28/02:00pm 16.5 9.2 -0.2 32 7.3 E 28 43 15 23 1027.2 1026.5 0.0
28/01:30pm 15.9 8.3 0.5 35 6.8 ESE 30 43 16 23 1027.3 1026.6 0.0
28/01:00pm 15.6 7.3 -0.6 33 7.0 E 33 44 18 24 1027.7 1027.1 0.0
28/12:30pm 15.1 7.4 0.2 36 6.5 ESE 30 39 16 21 1028.1 1027.5 0.0
28/12:00pm 14.9 7.3 0.4 37 6.3 E 30 39 16 21 1028.6 1027.9 0.0
28/11:30am 14.1 6.0 -0.4 37 6.2 E 32 43 17 23 1029.0 1028.3 0.0
28/11:00am 13.4 5.3 -0.3 39 5.8 E 32 43 17 23 1029.4 1028.8 0.0
28/10:30am 13.2 5.3 0.9 43 5.4 E 32 43 17 23 1029.6 1029.0 0.0
28/10:00am 12.7 5.7 1.7 47 4.8 E 28 41 15 22 1029.6 1029.0 0.0
28/09:30am 11.3 4.3 1.8 52 4.2 E 28 39 15 21 1029.7 1029.1 0.0
28/09:00am 10.1 3.4 1.7 56 3.6 E 26 35 14 19 1029.5 1028.9 0.0
28/08:30am 9.1 2.9 2.0 61 3.1 E 24 33 13 18 1029.1 1028.4 0.0
28/08:00am 7.9 2.4 2.0 66 2.5 E 20 28 11 15 1028.8 1028.1 0.0
28/07:30am 6.6 1.7 1.7 71 2.0 E 17 24 9 13 1028.6 1027.9 0.0
28/07:00am 6.1 0.6 1.6 73 1.9 ESE 20 26 11 14 1028.3 1027.6 0.0
28/06:30am 5.9 0.9 1.6 74 1.8 E 17 22 9 12 1027.9 1027.3 0.0
28/06:00am 5.9 0.9 1.6 74 1.8 ESE 17 22 9 12 1027.6 1026.9 0.0
28/05:30am 6.2 0.7 1.7 73 1.9 ESE 20 26 11 14 1027.5 1026.8 0.0
28/05:00am 6.1 1.2 1.8 74 1.8 ESE 17 22 9 12 1027.4 1026.7 0.0
28/04:30am 6.3 1.0 1.6 72 2.0 ESE 19 24 10 13 1027.3 1026.6 0.0
28/04:00am 6.6 1.0 1.5 70 2.1 ESE 20 26 11 14 1027.3 1026.6 0.0
28/03:30am 6.8 1.2 1.3 68 2.3 ESE 20 26 11 14 1027.5 1026.8 0.0
28/03:00am 7.1 1.5 1.2 66 2.4 ESE 20 28 11 15 1027.5 1026.8 0.0
28/02:30am 7.2 2.2 1.3 66 2.5 ESE 17 22 9 12 1027.6 1026.9 0.0
28/02:00am 7.5 2.5 1.4 65 2.5 ESE 17 24 9 13 1027.5 1026.8 0.0
28/01:30am 7.3 3.1 1.8 68 2.3 ESE 13 19 7 10 1027.6 1026.9 0.0
28/01:00am 7.5 3.0 2.0 68 2.3 ESE 15 19 8 10 1027.4 1026.7 0.0
28/12:30am 7.9 3.4 2.2 67 2.4 ESE 15 17 8 9 1027.4 1026.7 0.0
28/12:00am 8.4 3.9 2.0 64 2.7 ESE 15 20 8 11 1027.5 1026.8 0.0
 
Date/Time
WST
Temp
°C
App
Temp
°C
Dew
Point
°C
Rel
Hum
%
Delta-T
°C
Wind Press
QNH
hPa
Press
MSL
hPa
Rain since
9am
mm
Dir  Spd
km/h
Gust
km/h
Spd
kts
Gust
kts
27/11:30pm 8.5 3.6 1.9 63 2.8 SE 17 22 9 12 1027.7 1027.1 0.0
27/11:00pm 8.9 4.0 1.8 61 3.0 SE 17 20 9 11 1027.7 1027.1 0.0
27/10:30pm 9.4 4.5 1.8 59 3.3 ESE 17 20 9 11 1027.7 1027.1 0.0
27/10:00pm 9.1 4.6 2.2 62 3.0 ESE 15 17 8 9 1027.5 1026.8 0.0
27/09:30pm 9.3 5.2 2.4 62 3.0 ESE 13 17 7 9 1027.3 1026.6 0.0
27/09:00pm 9.9 5.8 2.3 59 3.3 ESE 13 15 7 8 1027.1 1026.4 0.0
27/08:30pm 10.5 6.4 2.1 56 3.7 ESE 13 15 7 8 1026.9 1026.2 0.0
27/08:00pm 11.0 7.3 2.1 54 3.9 ESE 11 15 6 8 1026.8 1026.1 0.0
27/07:30pm 11.4 7.3 2.2 53 4.1 ESE 13 15 7 8 1026.4 1025.7 0.0
27/07:00pm 11.7 8.0 2.2 52 4.2 ESE 11 13 6 7 1025.9 1025.2 0.0
27/06:30pm 12.5 8.7 1.8 48 4.7 ESE 11 13 6 7 1025.7 1025.0 0.0
27/06:00pm 13.4 9.2 1.4 44 5.3 SE 13 17 7 9 1025.4 1024.7 0.0
27/05:30pm 14.2 9.5 0.8 40 5.9 SE 15 22 8 12 1025.1 1024.4 0.0
27/05:00pm 15.0 9.8 0.1 36 6.5 SE 17 24 9 13 1024.9 1024.2 0.0
27/04:30pm 15.6 10.8 0.2 35 6.8 SE 15 22 8 12 1024.7 1024.0 0.0
27/04:00pm 16.1 10.5 -0.2 33 7.1 SSE 19 30 10 16 1024.5 1023.8 0.0
27/03:30pm 16.4 10.9 0.5 34 7.1 SSE 19 28 10 15 1024.4 1023.7 0.0
27/03:00pm 16.4 11.3 0.9 35 6.9 SE 17 26 9 14 1024.4 1023.7 0.0
27/02:30pm 16.1 10.4 0.7 35 6.9 SE 20 30 11 16 1024.7 1024.0 0.0
27/02:00pm 15.9 11.2 0.9 36 6.7 SE 15 26 8 14 1024.5 1023.8 0.0
27/01:30pm 15.4 9.8 1.2 38 6.4 SE 20 30 11 16 1024.6 1023.9 0.0
27/01:00pm 15.8 10.3 1.9 39 6.3 ESE 20 35 11 19 1024.7 1024.0 0.0
27/12:30pm 15.3 9.4 1.4 39 6.2 SE 22 33 12 18 1025.0 1024.3 0.0
27/12:00pm 15.1 8.4 1.6 40 6.1 SE 26 37 14 20 1025.4 1024.7 0.0
27/11:30am 14.5 8.2 1.4 41 5.8 ESE 24 33 13 18 1025.9 1025.2 0.0
27/11:00am 13.8 8.1 3.0 48 4.9 ESE 22 30 12 16 1026.1 1025.5 0.0
27/10:30am 13.1 6.6 2.6 49 4.8 ESE 26 32 14 17 1026.6 1025.9 0.0
27/10:00am 12.3 6.6 3.0 53 4.2 ESE 22 32 12 17 1026.7 1026.0 0.0
27/09:30am 11.6 7.1 4.1 60 3.5 ESE 17 26 9 14 1026.9 1026.2 0.0
27/09:00am 10.0 4.9 4.0 66 2.7 ESE 20 26 11 14 1026.7 1026.0 0.0
27/08:30am 9.4 4.8 3.8 68 2.5 ESE 17 24 9 13 1026.4 1025.7 0.0
27/08:00am 8.2 4.0 3.9 74 1.9 ESE 15 17 8 9 1026.1 1025.5 0.0
27/07:30am 7.0 3.6 4.0 81 1.3 ESE 11 17 6 9 1025.8 1025.1 0.0
27/07:00am 6.0 2.5 3.7 85 1.0 ESE 11 13 6 7 1025.7 1025.0 0.0
27/06:30am 6.4 2.2 3.9 84 1.1 ESE 15 19 8 10 1025.2 1024.5 0.0
27/06:00am 6.6 2.5 4.1 84 1.1 ESE 15 19 8 10 1025.0 1024.3 0.0
27/05:30am 6.9 2.8 4.2 83 1.2 ESE 15 20 8 11 1024.9 1024.2 0.0
27/05:00am 6.9 2.8 4.2 83 1.2 ESE 15 19 8 10 1024.8 1024.1 0.0
27/04:30am 7.0 3.3 4.7 85 1.0 ESE 13 17 7 9 1024.7 1024.0 0.0
27/04:00am 7.1 3.5 4.9 86 1.0 ESE 13 15 7 8 1024.7 1024.0 0.0
27/03:30am 7.2 3.6 5.0 86 1.0 ESE 13 17 7 9 1024.6 1023.9 0.0
27/03:00am 7.6 3.6 5.1 84 1.1 ESE 15 20 8 11 1024.7 1024.0 0.0
27/02:30am 8.0 4.5 5.3 83 1.2 SE 13 20 7 11 1024.8 1024.1 0.0
27/02:00am 8.1 4.3 5.6 84 1.2 SE 15 20 8 11 1024.9 1024.2 0.0
27/01:30am 7.8 4.4 5.9 88 0.9 SSE 13 19 7 10 1024.8 1024.1 0.0
27/01:00am 7.9 5.3 5.9 87 0.9 SSE 9 11 5 6 1024.6 1023.9 0.0
27/12:30am 9.0 5.6 6.1 82 1.4 SE 13 15 7 8 1024.5 1023.8 0.0
27/12:00am 9.3 6.0 6.2 81 1.5 SE 13 15 7 8 1024.2 1023.4 0.0
 
Date/Time
WST
Temp
°C
App
Temp
°C
Dew
Point
°C
Rel
Hum
%
Delta-T
°C
Wind Press
QNH
hPa
Press
MSL
hPa
Rain since
9am
mm
Dir  Spd
km/h
Gust
km/h
Spd
kts
Gust
kts
26/11:30pm 10.0 6.7 6.3 78 1.8 ESE 13 17 7 9 1024.0 1023.3 0.0
26/11:00pm 10.4 7.1 6.4 76 1.9 ESE 13 19 7 10 1024.0 1023.3 0.0
26/10:30pm 11.0 7.3 6.4 73 2.2 ESE 15 20 8 11 1024.0 1023.3 0.0
26/10:00pm 11.4 7.7 6.3 71 2.5 ESE 15 20 8 11 1024.0 1023.3 0.0
26/09:30pm 11.6 7.5 6.1 69 2.7 SE 17 20 9 11 1024.2 1023.4 0.0
26/09:00pm 12.0 8.3 6.1 67 2.8 SE 15 20 8 11 1024.2 1023.4 0.0
26/08:30pm 12.2 8.8 5.8 65 3.1 SE 13 17 7 9 1024.2 1023.4 0.0
26/08:00pm 12.3 9.2 5.5 63 3.2 SE 11 13 6 7 1023.8 1023.1 0.0
26/07:30pm 13.1 9.6 5.5 60 3.7 SE 13 15 7 8 1023.5 1022.8 0.0
26/07:00pm 13.5 10.4 5.4 58 3.9 SSE 11 15 6 8 1023.5 1022.8 0.0
26/06:30pm 13.7 11.0 5.8 59 3.8 SSE 9 11 5 6 1023.2 1022.5 0.0
26/06:00pm 14.8 11.6 5.1 52 4.7 SSE 11 15 6 8 1023.1 1022.4 0.0
26/05:30pm 15.4 11.7 4.5 48 5.2 SSE 13 19 7 10 1022.6 1021.8 0.0
26/05:00pm 16.1 12.5 4.8 47 5.5 SE 13 26 7 14 1022.4 1021.6 0.0
26/04:30pm 16.9 13.0 5.2 46 5.8 ESE 15 20 8 11 1022.0 1021.3 0.0
26/04:00pm 17.4 13.2 5.7 46 5.8 SE 17 20 9 11 1021.9 1021.2 0.0
26/03:30pm 17.2 12.6 5.8 47 5.7 SE 19 28 10 15 1021.8 1021.1 0.0
26/03:00pm 17.4 12.8 5.7 46 5.8 ESE 19 28 10 15 1021.6 1020.9 0.0
26/02:30pm 17.0 12.9 6.2 49 5.4 SE 17 26 9 14 1021.6 1020.9 0.0
26/02:00pm 17.4 13.2 5.7 46 5.8 SE 17 28 9 15 1021.7 1021.0 0.0
26/01:30pm 17.6 13.1 7.1 50 5.4 E 20 30 11 16 1021.6 1020.9 0.0
26/01:00pm 17.1 13.2 6.9 51 5.2 ESE 17 26 9 14 1021.7 1021.0 0.0
26/12:30pm 16.4 12.2 7.3 55 4.7 ESE 19 24 10 13 1022.2 1021.4 0.0
26/12:00pm 16.1 11.9 7.6 57 4.4 ESE 19 28 10 15 1022.6 1021.8 0.0
26/11:30am 15.1 11.2 6.9 58 4.1 ESE 17 26 9 14 1023.2 1022.5 0.0
26/11:00am 15.1 11.2 7.2 59 4.0 ESE 17 24 9 13 1023.5 1022.8 0.0
26/10:30am 14.5 10.6 7.3 62 3.6 ESE 17 24 9 13 1023.7 1023.0 0.0
26/10:00am 13.5 9.2 6.8 64 3.3 ESE 19 26 10 14 1023.8 1023.1 0.0
26/09:30am 12.7 8.3 6.7 67 3.0 ESE 19 26 10 14 1023.9 1023.2 0.0
26/09:00am 12.0 7.6 6.7 70 2.6 ESE 19 28 10 15 1023.5 1022.8 0.0
26/08:30am 11.3 6.6 6.0 70 2.5 ESE 20 26 11 14 1023.4 1022.7 0.0
26/08:00am 11.0 7.7 6.2 72 2.3 ESE 13 19 7 10 1023.2 1022.5 0.0
26/07:30am 10.7 7.0 6.1 73 2.2 SE 15 20 8 11 1023.3 1022.6 0.0
26/07:00am 10.6 6.8 6.0 73 2.2 SE 15 22 8 12 1022.8 1022.1 0.0
26/06:30am 10.6 6.1 6.0 73 2.2 SE 19 24 10 13 1022.4 1021.6 0.0
26/06:00am 10.4 6.3 6.0 74 2.1 SE 17 24 9 13 1021.9 1021.2 0.0
26/05:30am 10.5 6.5 6.5 76 1.9 ESE 17 24 9 13 1021.6 1020.9 0.0
26/05:00am 10.3 7.0 6.6 78 1.8 SE 13 17 7 9 1021.7 1021.0 0.0
26/04:30am 10.3 6.7 6.6 78 1.8 SSE 15 19 8 10 1021.6 1020.9 0.0
26/04:00am 10.3 7.1 6.8 79 1.7 SSE 13 17 7 9 1021.8 1021.1 0.0
26/03:30am 10.2 7.3 6.7 79 1.7 SSE 11 15 6 8 1021.9 1021.2 0.0
26/03:00am 10.2 7.3 6.7 79 1.7 SSE 11 13 6 7 1022.0 1021.3 0.0
26/02:30am 10.0 6.7 6.2 77 1.8 SE 13 17 7 9 1021.8 1021.1 0.0
26/02:00am 10.5 6.8 6.1 74 2.1 SE 15 20 8 11 1021.9 1021.2 0.0
26/01:30am 11.2 7.1 6.3 72 2.4 ESE 17 22 9 12 1021.8 1021.1 0.0
26/01:00am 11.4 7.7 6.1 70 2.5 SE 15 24 8 13 1022.2 1021.4 0.0
26/12:30am 11.6 7.9 6.3 70 2.6 SE 15 22 8 12 1022.2 1021.4 0.0
26/12:00am 11.6 7.5 6.3 70 2.6 SE 17 24 9 13 1022.3 1021.5 0.0

Other Formats:

Comma delimited format used in spreadsheet applications
http://www.bom.gov.au/fwo/IDW60801/IDW60801.94430.axf

JavaScript Object Notation format (JSON) in row-major order
http://www.bom.gov.au/fwo/IDW60801/IDW60801.94430.json